sensor_id;sensor_type;location;lat;lon;timestamp;temperature;humidity
55091;DHT22;40985;53.180;5.800;2023-01-15T00:01:43;6.00;99.90
55091;DHT22;40985;53.180;5.800;2023-01-15T00:04:11;6.00;99.90
55091;DHT22;40985;53.180;5.800;2023-01-15T00:06:39;5.90;99.90
55091;DHT22;40985;53.180;5.800;2023-01-15T00:09:07;5.90;99.90
55091;DHT22;40985;53.180;5.800;2023-01-15T00:11:33;6.00;99.90
55091;DHT22;40985;53.180;5.800;2023-01-15T00:13:59;6.00;99.90
55091;DHT22;40985;53.180;5.800;2023-01-15T00:16:26;6.00;99.90
55091;DHT22;40985;53.180;5.800;2023-01-15T00:19:00;6.00;99.90
55091;DHT22;40985;53.180;5.800;2023-01-15T00:21:27;6.00;99.90
55091;DHT22;40985;53.180;5.800;2023-01-15T00:23:53;6.00;99.90
55091;DHT22;40985;53.180;5.800;2023-01-15T00:26:38;6.00;99.90
55091;DHT22;40985;53.180;5.800;2023-01-15T00:29:23;6.00;99.90
55091;DHT22;40985;53.180;5.800;2023-01-15T00:31:53;6.00;99.90
55091;DHT22;40985;53.180;5.800;2023-01-15T00:34:20;6.00;99.90
55091;DHT22;40985;53.180;5.800;2023-01-15T00:36:46;6.00;99.90
55091;DHT22;40985;53.180;5.800;2023-01-15T00:39:12;6.00;99.90
55091;DHT22;40985;53.180;5.800;2023-01-15T00:41:37;6.00;99.90
55091;DHT22;40985;53.180;5.800;2023-01-15T00:44:03;5.90;99.90
55091;DHT22;40985;53.180;5.800;2023-01-15T00:46:29;5.90;99.90
55091;DHT22;40985;53.180;5.800;2023-01-15T00:48:54;5.90;99.90
55091;DHT22;40985;53.180;5.800;2023-01-15T00:51:20;5.90;99.90
55091;DHT22;40985;53.180;5.800;2023-01-15T00:53:46;5.90;99.90
55091;DHT22;40985;53.180;5.800;2023-01-15T00:56:11;5.90;99.90
55091;DHT22;40985;53.180;5.800;2023-01-15T00:58:37;5.90;99.90
55091;DHT22;40985;53.180;5.800;2023-01-15T01:01:03;5.90;99.90
55091;DHT22;40985;53.180;5.800;2023-01-15T01:03:29;5.80;99.90
55091;DHT22;40985;53.180;5.800;2023-01-15T01:05:59;5.80;99.90
55091;DHT22;40985;53.180;5.800;2023-01-15T01:08:25;5.80;99.90
55091;DHT22;40985;53.180;5.800;2023-01-15T01:11:01;5.90;99.90
55091;DHT22;40985;53.180;5.800;2023-01-15T01:13:26;5.90;99.90
55091;DHT22;40985;53.180;5.800;2023-01-15T01:15:52;5.80;99.90
55091;DHT22;40985;53.180;5.800;2023-01-15T01:18:18;5.80;99.90
55091;DHT22;40985;53.180;5.800;2023-01-15T01:20:43;5.80;99.90
55091;DHT22;40985;53.180;5.800;2023-01-15T01:23:09;5.80;99.90
55091;DHT22;40985;53.180;5.800;2023-01-15T01:25:35;5.80;99.90
55091;DHT22;40985;53.180;5.800;2023-01-15T01:28:00;5.80;99.90
55091;DHT22;40985;53.180;5.800;2023-01-15T01:30:26;5.80;99.90
55091;DHT22;40985;53.180;5.800;2023-01-15T01:32:52;5.80;99.90
55091;DHT22;40985;53.180;5.800;2023-01-15T01:35:17;5.80;99.90
55091;DHT22;40985;53.180;5.800;2023-01-15T01:37:48;5.80;99.90
55091;DHT22;40985;53.180;5.800;2023-01-15T01:40:14;5.80;99.90
55091;DHT22;40985;53.180;5.800;2023-01-15T01:42:40;5.80;99.90
55091;DHT22;40985;53.180;5.800;2023-01-15T01:45:11;5.80;99.90
55091;DHT22;40985;53.180;5.800;2023-01-15T01:47:41;5.80;99.90
55091;DHT22;40985;53.180;5.800;2023-01-15T01:50:11;5.70;99.90
55091;DHT22;40985;53.180;5.800;2023-01-15T01:52:45;5.70;99.90
55091;DHT22;40985;53.180;5.800;2023-01-15T01:55:15;5.70;99.90
55091;DHT22;40985;53.180;5.800;2023-01-15T01:57:42;5.70;99.90
55091;DHT22;40985;53.180;5.800;2023-01-15T02:00:09;5.70;99.90
55091;DHT22;40985;53.180;5.800;2023-01-15T02:02:36;5.70;99.90
55091;DHT22;40985;53.180;5.800;2023-01-15T02:05:03;5.70;99.90
55091;DHT22;40985;53.180;5.800;2023-01-15T02:07:29;5.70;99.90
55091;DHT22;40985;53.180;5.800;2023-01-15T02:09:58;5.80;99.90
55091;DHT22;40985;53.180;5.800;2023-01-15T02:12:24;5.80;99.90
55091;DHT22;40985;53.180;5.800;2023-01-15T02:15:06;5.80;99.90
55091;DHT22;40985;53.180;5.800;2023-01-15T02:17:54;5.80;99.90
55091;DHT22;40985;53.180;5.800;2023-01-15T02:26:02;5.80;99.90
55091;DHT22;40985;53.180;5.800;2023-01-15T02:28:42;5.80;99.90
55091;DHT22;40985;53.180;5.800;2023-01-15T02:31:29;5.80;99.90
55091;DHT22;40985;53.180;5.800;2023-01-15T02:34:13;5.80;99.90
55091;DHT22;40985;53.180;5.800;2023-01-15T02:36:43;5.70;99.90
55091;DHT22;40985;53.180;5.800;2023-01-15T02:39:12;5.70;99.90
55091;DHT22;40985;53.180;5.800;2023-01-15T02:41:44;5.80;99.90
55091;DHT22;40985;53.180;5.800;2023-01-15T02:44:13;5.70;99.90
55091;DHT22;40985;53.180;5.800;2023-01-15T02:46:40;5.80;99.90
55091;DHT22;40985;53.180;5.800;2023-01-15T02:49:09;5.80;99.90
55091;DHT22;40985;53.180;5.800;2023-01-15T02:51:43;5.80;99.90
55091;DHT22;40985;53.180;5.800;2023-01-15T02:54:12;5.90;99.90
55091;DHT22;40985;53.180;5.800;2023-01-15T02:56:40;5.80;99.90
55091;DHT22;40985;53.180;5.800;2023-01-15T02:59:13;5.90;99.90
55091;DHT22;40985;53.180;5.800;2023-01-15T03:01:44;5.80;99.90
55091;DHT22;40985;53.180;5.800;2023-01-15T03:04:23;5.80;99.90
55091;DHT22;40985;53.180;5.800;2023-01-15T03:07:00;5.80;99.90
55091;DHT22;40985;53.180;5.800;2023-01-15T03:09:30;5.80;99.90
55091;DHT22;40985;53.180;5.800;2023-01-15T03:12:23;5.70;99.90
55091;DHT22;40985;53.180;5.800;2023-01-15T03:15:15;5.70;99.90
55091;DHT22;40985;53.180;5.800;2023-01-15T03:18:07;5.70;99.90
55091;DHT22;40985;53.180;5.800;2023-01-15T03:20:36;5.60;99.90
55091;DHT22;40985;53.180;5.800;2023-01-15T03:23:08;5.60;99.90
55091;DHT22;40985;53.180;5.800;2023-01-15T03:25:43;5.60;99.90
55091;DHT22;40985;53.180;5.800;2023-01-15T03:28:11;5.60;99.90
55091;DHT22;40985;53.180;5.800;2023-01-15T03:30:38;5.60;99.90
55091;DHT22;40985;53.180;5.800;2023-01-15T03:33:03;5.60;99.90
55091;DHT22;40985;53.180;5.800;2023-01-15T03:38:16;5.60;99.90
55091;DHT22;40985;53.180;5.800;2023-01-15T03:43:40;5.50;99.90
55091;DHT22;40985;53.180;5.800;2023-01-15T03:49:02;5.50;99.90
55091;DHT22;40985;53.180;5.800;2023-01-15T03:51:37;5.50;99.90
55091;DHT22;40985;53.180;5.800;2023-01-15T03:54:08;5.50;99.90
55091;DHT22;40985;53.180;5.800;2023-01-15T03:56:44;5.40;99.90
55091;DHT22;40985;53.180;5.800;2023-01-15T03:59:35;5.40;99.90
55091;DHT22;40985;53.180;5.800;2023-01-15T04:02:06;5.30;99.90
55091;DHT22;40985;53.180;5.800;2023-01-15T04:04:33;5.40;99.90
55091;DHT22;40985;53.180;5.800;2023-01-15T04:06:59;5.30;99.90
55091;DHT22;40985;53.180;5.800;2023-01-15T04:09:26;5.30;99.90
55091;DHT22;40985;53.180;5.800;2023-01-15T04:11:52;5.30;99.90
55091;DHT22;40985;53.180;5.800;2023-01-15T04:14:17;5.30;99.90
55091;DHT22;40985;53.180;5.800;2023-01-15T04:16:43;5.30;99.90
55091;DHT22;40985;53.180;5.800;2023-01-15T04:19:09;5.30;99.90
55091;DHT22;40985;53.180;5.800;2023-01-15T04:21:34;5.20;99.90
55091;DHT22;40985;53.180;5.800;2023-01-15T04:24:00;5.30;99.90
55091;DHT22;40985;53.180;5.800;2023-01-15T04:26:26;5.30;99.90
55091;DHT22;40985;53.180;5.800;2023-01-15T04:28:52;5.20;99.90
55091;DHT22;40985;53.180;5.800;2023-01-15T04:31:17;5.20;99.90
55091;DHT22;40985;53.180;5.800;2023-01-15T04:33:43;5.10;99.90
55091;DHT22;40985;53.180;5.800;2023-01-15T04:36:09;5.10;99.90
55091;DHT22;40985;53.180;5.800;2023-01-15T04:38:36;5.10;99.90
55091;DHT22;40985;53.180;5.800;2023-01-15T04:41:03;5.10;99.90
55091;DHT22;40985;53.180;5.800;2023-01-15T04:43:47;5.10;99.90
55091;DHT22;40985;53.180;5.800;2023-01-15T04:46:40;5.20;99.90
55091;DHT22;40985;53.180;5.800;2023-01-15T04:49:08;5.10;99.90
55091;DHT22;40985;53.180;5.800;2023-01-15T04:51:34;5.10;99.90
55091;DHT22;40985;53.180;5.800;2023-01-15T04:54:02;5.10;99.90
55091;DHT22;40985;53.180;5.800;2023-01-15T04:56:28;5.00;99.90
55091;DHT22;40985;53.180;5.800;2023-01-15T04:58:53;5.00;99.90
55091;DHT22;40985;53.180;5.800;2023-01-15T05:01:19;5.00;99.90
55091;DHT22;40985;53.180;5.800;2023-01-15T05:03:45;5.10;99.90
55091;DHT22;40985;53.180;5.800;2023-01-15T05:06:11;5.00;99.90
55091;DHT22;40985;53.180;5.800;2023-01-15T05:08:38;5.00;99.90
55091;DHT22;40985;53.180;5.800;2023-01-15T05:11:05;5.00;99.90
55091;DHT22;40985;53.180;5.800;2023-01-15T05:13:31;5.10;99.90
55091;DHT22;40985;53.180;5.800;2023-01-15T05:16:25;4.90;99.90
55091;DHT22;40985;53.180;5.800;2023-01-15T05:18:53;4.90;99.90
55091;DHT22;40985;53.180;5.800;2023-01-15T05:21:21;4.80;99.90
55091;DHT22;40985;53.180;5.800;2023-01-15T05:23:48;4.80;99.90
55091;DHT22;40985;53.180;5.800;2023-01-15T05:26:15;4.80;99.90
55091;DHT22;40985;53.180;5.800;2023-01-15T05:28:41;4.80;99.90
55091;DHT22;40985;53.180;5.800;2023-01-15T05:31:12;4.80;99.90
55091;DHT22;40985;53.180;5.800;2023-01-15T05:33:38;4.70;99.90
55091;DHT22;40985;53.180;5.800;2023-01-15T05:36:07;4.90;99.90
55091;DHT22;40985;53.180;5.800;2023-01-15T05:38:33;4.80;99.90
55091;DHT22;40985;53.180;5.800;2023-01-15T05:41:03;4.80;99.90
55091;DHT22;40985;53.180;5.800;2023-01-15T05:43:48;4.90;99.90
55091;DHT22;40985;53.180;5.800;2023-01-15T05:46:14;4.80;99.90
55091;DHT22;40985;53.180;5.800;2023-01-15T05:48:40;4.80;99.90
55091;DHT22;40985;53.180;5.800;2023-01-15T05:51:05;4.70;99.90
55091;DHT22;40985;53.180;5.800;2023-01-15T05:53:31;4.80;99.90
55091;DHT22;40985;53.180;5.800;2023-01-15T05:56:03;4.70;99.90
55091;DHT22;40985;53.180;5.800;2023-01-15T05:58:29;4.70;99.90
55091;DHT22;40985;53.180;5.800;2023-01-15T06:00:55;4.70;99.90
55091;DHT22;40985;53.180;5.800;2023-01-15T06:03:22;4.70;99.90
55091;DHT22;40985;53.180;5.800;2023-01-15T06:05:54;4.60;99.90
55091;DHT22;40985;53.180;5.800;2023-01-15T06:08:22;4.60;99.90
55091;DHT22;40985;53.180;5.800;2023-01-15T06:10:48;4.70;99.90
55091;DHT22;40985;53.180;5.800;2023-01-15T06:13:15;4.60;99.90
55091;DHT22;40985;53.180;5.800;2023-01-15T06:15:42;4.70;99.90
55091;DHT22;40985;53.180;5.800;2023-01-15T06:18:08;4.70;99.90
55091;DHT22;40985;53.180;5.800;2023-01-15T06:20:35;4.70;99.90
55091;DHT22;40985;53.180;5.800;2023-01-15T06:23:01;4.60;99.90
55091;DHT22;40985;53.180;5.800;2023-01-15T06:25:27;4.60;99.90
55091;DHT22;40985;53.180;5.800;2023-01-15T06:27:52;4.60;99.90
55091;DHT22;40985;53.180;5.800;2023-01-15T06:30:18;4.60;99.90
55091;DHT22;40985;53.180;5.800;2023-01-15T06:32:44;4.60;99.90
55091;DHT22;40985;53.180;5.800;2023-01-15T06:35:10;4.60;99.90
55091;DHT22;40985;53.180;5.800;2023-01-15T06:37:36;4.60;99.90
55091;DHT22;40985;53.180;5.800;2023-01-15T06:40:02;4.70;99.90
55091;DHT22;40985;53.180;5.800;2023-01-15T06:42:28;4.60;99.90
55091;DHT22;40985;53.180;5.800;2023-01-15T06:45:12;4.70;99.90
55091;DHT22;40985;53.180;5.800;2023-01-15T06:47:57;4.60;99.90
55091;DHT22;40985;53.180;5.800;2023-01-15T06:50:24;4.50;99.90
55091;DHT22;40985;53.180;5.800;2023-01-15T06:52:50;4.60;99.90
55091;DHT22;40985;53.180;5.800;2023-01-15T06:55:16;4.60;99.90
55091;DHT22;40985;53.180;5.800;2023-01-15T06:57:43;4.60;99.90
55091;DHT22;40985;53.180;5.800;2023-01-15T07:00:11;4.60;99.90
55091;DHT22;40985;53.180;5.800;2023-01-15T07:02:37;4.60;99.90
55091;DHT22;40985;53.180;5.800;2023-01-15T07:05:05;4.70;99.90
55091;DHT22;40985;53.180;5.800;2023-01-15T07:07:31;4.70;99.90
55091;DHT22;40985;53.180;5.800;2023-01-15T07:09:57;4.70;99.90
55091;DHT22;40985;53.180;5.800;2023-01-15T07:12:23;4.70;99.90
55091;DHT22;40985;53.180;5.800;2023-01-15T07:14:48;4.70;99.90
55091;DHT22;40985;53.180;5.800;2023-01-15T07:17:14;4.70;99.90
55091;DHT22;40985;53.180;5.800;2023-01-15T07:19:40;4.70;99.90
55091;DHT22;40985;53.180;5.800;2023-01-15T07:22:06;4.70;99.90
55091;DHT22;40985;53.180;5.800;2023-01-15T07:24:33;4.80;99.90
55091;DHT22;40985;53.180;5.800;2023-01-15T07:26:58;4.70;99.90
55091;DHT22;40985;53.180;5.800;2023-01-15T07:29:24;4.80;99.90
55091;DHT22;40985;53.180;5.800;2023-01-15T07:31:50;4.80;99.90
55091;DHT22;40985;53.180;5.800;2023-01-15T07:34:16;4.80;99.90
55091;DHT22;40985;53.180;5.800;2023-01-15T07:36:42;4.80;99.90
55091;DHT22;40985;53.180;5.800;2023-01-15T07:39:10;4.90;99.90
55091;DHT22;40985;53.180;5.800;2023-01-15T07:41:36;4.90;99.90
55091;DHT22;40985;53.180;5.800;2023-01-15T07:44:21;4.90;99.90
55091;DHT22;40985;53.180;5.800;2023-01-15T07:47:16;5.00;99.90
55091;DHT22;40985;53.180;5.800;2023-01-15T07:50:00;5.00;99.90
55091;DHT22;40985;53.180;5.800;2023-01-15T07:52:26;4.90;99.90
55091;DHT22;40985;53.180;5.800;2023-01-15T07:54:52;4.90;99.90
55091;DHT22;40985;53.180;5.800;2023-01-15T07:57:19;4.90;99.90
55091;DHT22;40985;53.180;5.800;2023-01-15T07:59:46;4.90;99.90
55091;DHT22;40985;53.180;5.800;2023-01-15T08:02:12;4.90;99.90
55091;DHT22;40985;53.180;5.800;2023-01-15T08:04:38;4.90;99.90
55091;DHT22;40985;53.180;5.800;2023-01-15T08:07:04;5.00;99.90
55091;DHT22;40985;53.180;5.800;2023-01-15T08:09:30;5.00;99.90
55091;DHT22;40985;53.180;5.800;2023-01-15T08:12:00;5.00;99.90
55091;DHT22;40985;53.180;5.800;2023-01-15T08:14:44;5.00;99.90
55091;DHT22;40985;53.180;5.800;2023-01-15T08:17:31;5.00;99.90
55091;DHT22;40985;53.180;5.800;2023-01-15T08:19:57;4.90;99.90
55091;DHT22;40985;53.180;5.800;2023-01-15T08:22:23;4.80;99.90
55091;DHT22;40985;53.180;5.800;2023-01-15T08:24:49;4.90;99.90
55091;DHT22;40985;53.180;5.800;2023-01-15T08:27:15;4.90;99.90
55091;DHT22;40985;53.180;5.800;2023-01-15T08:29:41;4.90;99.90
55091;DHT22;40985;53.180;5.800;2023-01-15T08:32:06;4.90;99.90
55091;DHT22;40985;53.180;5.800;2023-01-15T08:34:32;4.80;99.90
55091;DHT22;40985;53.180;5.800;2023-01-15T08:36:58;4.70;99.90
55091;DHT22;40985;53.180;5.800;2023-01-15T08:39:25;4.80;99.90
55091;DHT22;40985;53.180;5.800;2023-01-15T08:41:52;4.80;99.90
55091;DHT22;40985;53.180;5.800;2023-01-15T08:44:18;4.80;99.90
55091;DHT22;40985;53.180;5.800;2023-01-15T08:46:49;4.90;99.90
55091;DHT22;40985;53.180;5.800;2023-01-15T08:49:16;5.00;99.90
55091;DHT22;40985;53.180;5.800;2023-01-15T08:51:43;5.10;99.90
55091;DHT22;40985;53.180;5.800;2023-01-15T08:54:09;5.20;99.90
55091;DHT22;40985;53.180;5.800;2023-01-15T08:56:35;5.20;99.90
55091;DHT22;40985;53.180;5.800;2023-01-15T08:59:07;5.20;99.90
55091;DHT22;40985;53.180;5.800;2023-01-15T09:01:34;5.20;99.90
55091;DHT22;40985;53.180;5.800;2023-01-15T09:04:00;5.20;99.90
55091;DHT22;40985;53.180;5.800;2023-01-15T09:06:26;5.40;99.90
55091;DHT22;40985;53.180;5.800;2023-01-15T09:08:52;5.50;99.90
55091;DHT22;40985;53.180;5.800;2023-01-15T09:11:17;5.60;99.90
55091;DHT22;40985;53.180;5.800;2023-01-15T09:13:43;5.60;99.90
55091;DHT22;40985;53.180;5.800;2023-01-15T09:16:11;5.50;99.90
55091;DHT22;40985;53.180;5.800;2023-01-15T09:18:37;5.60;99.90
55091;DHT22;40985;53.180;5.800;2023-01-15T09:21:04;5.60;99.90
55091;DHT22;40985;53.180;5.800;2023-01-15T09:23:31;5.70;99.90
55091;DHT22;40985;53.180;5.800;2023-01-15T09:26:02;5.70;99.90
55091;DHT22;40985;53.180;5.800;2023-01-15T09:28:31;5.80;99.90
55091;DHT22;40985;53.180;5.800;2023-01-15T09:30:57;5.80;99.90
55091;DHT22;40985;53.180;5.800;2023-01-15T09:33:23;5.80;99.90
55091;DHT22;40985;53.180;5.800;2023-01-15T09:35:49;5.80;99.90
55091;DHT22;40985;53.180;5.800;2023-01-15T09:38:17;5.70;99.90
55091;DHT22;40985;53.180;5.800;2023-01-15T09:46:03;5.40;99.90
55091;DHT22;40985;53.180;5.800;2023-01-15T09:51:35;5.50;99.90
55091;DHT22;40985;53.180;5.800;2023-01-15T09:56:36;5.50;99.90
55091;DHT22;40985;53.180;5.800;2023-01-15T09:59:12;5.60;99.90
55091;DHT22;40985;53.180;5.800;2023-01-15T10:01:41;5.70;99.90
55091;DHT22;40985;53.180;5.800;2023-01-15T10:07:29;5.70;99.90
55091;DHT22;40985;53.180;5.800;2023-01-15T10:10:09;5.60;99.90
55091;DHT22;40985;53.180;5.800;2023-01-15T10:12:37;5.60;99.90
55091;DHT22;40985;53.180;5.800;2023-01-15T10:17:52;5.30;99.90
55091;DHT22;40985;53.180;5.800;2023-01-15T10:32:19;5.60;99.90
55091;DHT22;40985;53.180;5.800;2023-01-15T10:45:50;6.00;99.90
55091;DHT22;40985;53.180;5.800;2023-01-15T10:48:20;6.20;99.90
55091;DHT22;40985;53.180;5.800;2023-01-15T10:50:48;6.30;99.90
55091;DHT22;40985;53.180;5.800;2023-01-15T10:56:34;6.20;99.90
55091;DHT22;40985;53.180;5.800;2023-01-15T11:01:36;6.10;99.90
55091;DHT22;40985;53.180;5.800;2023-01-15T11:04:03;6.20;99.90
55091;DHT22;40985;53.180;5.800;2023-01-15T11:06:30;6.20;99.90
55091;DHT22;40985;53.180;5.800;2023-01-15T11:08:58;6.20;99.90
55091;DHT22;40985;53.180;5.800;2023-01-15T11:11:45;6.20;99.90
55091;DHT22;40985;53.180;5.800;2023-01-15T11:14:41;6.30;99.90
55091;DHT22;40985;53.180;5.800;2023-01-15T11:17:34;6.30;99.90
55091;DHT22;40985;53.180;5.800;2023-01-15T11:20:31;6.20;99.90
55091;DHT22;40985;53.180;5.800;2023-01-15T11:23:06;6.10;99.90
55091;DHT22;40985;53.180;5.800;2023-01-15T11:25:32;6.00;99.90
55091;DHT22;40985;53.180;5.800;2023-01-15T11:28:03;5.90;99.90
55091;DHT22;40985;53.180;5.800;2023-01-15T11:30:33;5.80;99.90
55091;DHT22;40985;53.180;5.800;2023-01-15T11:33:01;5.80;99.90
55091;DHT22;40985;53.180;5.800;2023-01-15T11:35:29;5.80;99.90
55091;DHT22;40985;53.180;5.800;2023-01-15T11:38:06;5.80;99.90
55091;DHT22;40985;53.180;5.800;2023-01-15T11:40:32;5.70;99.90
55091;DHT22;40985;53.180;5.800;2023-01-15T11:42:58;5.50;99.90
55091;DHT22;40985;53.180;5.800;2023-01-15T11:45:49;5.40;99.90
55091;DHT22;40985;53.180;5.800;2023-01-15T11:48:43;5.10;99.90
55091;DHT22;40985;53.180;5.800;2023-01-15T11:51:27;5.10;99.90
55091;DHT22;40985;53.180;5.800;2023-01-15T11:53:57;5.10;99.90
55091;DHT22;40985;53.180;5.800;2023-01-15T11:56:26;4.90;99.90
55091;DHT22;40985;53.180;5.800;2023-01-15T11:58:55;4.80;99.90
55091;DHT22;40985;53.180;5.800;2023-01-15T12:01:31;4.90;99.90
55091;DHT22;40985;53.180;5.800;2023-01-15T12:04:04;4.90;99.90
55091;DHT22;40985;53.180;5.800;2023-01-15T12:06:30;5.00;99.90
55091;DHT22;40985;53.180;5.800;2023-01-15T12:09:09;5.00;99.90
55091;DHT22;40985;53.180;5.800;2023-01-15T12:17:19;5.20;99.90
55091;DHT22;40985;53.180;5.800;2023-01-15T12:28:13;5.20;99.90
55091;DHT22;40985;53.180;5.800;2023-01-15T12:31:13;5.20;99.90
55091;DHT22;40985;53.180;5.800;2023-01-15T12:34:01;5.10;99.90
55091;DHT22;40985;53.180;5.800;2023-01-15T12:36:37;5.20;99.90
55091;DHT22;40985;53.180;5.800;2023-01-15T12:39:12;5.20;99.90
55091;DHT22;40985;53.180;5.800;2023-01-15T12:41:41;5.20;99.90
55091;DHT22;40985;53.180;5.800;2023-01-15T12:44:41;5.30;99.90
55091;DHT22;40985;53.180;5.800;2023-01-15T12:50:50;5.30;99.90
55091;DHT22;40985;53.180;5.800;2023-01-15T12:59:32;5.40;99.90
55091;DHT22;40985;53.180;5.800;2023-01-15T13:02:12;5.40;99.90
55091;DHT22;40985;53.180;5.800;2023-01-15T13:04:49;5.40;99.90
55091;DHT22;40985;53.180;5.800;2023-01-15T13:07:21;5.40;99.90
55091;DHT22;40985;53.180;5.800;2023-01-15T13:09:55;4.90;99.90
55091;DHT22;40985;53.180;5.800;2023-01-15T13:12:22;3.90;99.90
55091;DHT22;40985;53.180;5.800;2023-01-15T13:14:48;3.80;99.90
55091;DHT22;40985;53.180;5.800;2023-01-15T13:20:07;3.60;99.90
55091;DHT22;40985;53.180;5.800;2023-01-15T13:22:51;3.70;99.90
55091;DHT22;40985;53.180;5.800;2023-01-15T13:25:28;3.90;99.90
55091;DHT22;40985;53.180;5.800;2023-01-15T13:33:32;4.60;99.90
55091;DHT22;40985;53.180;5.800;2023-01-15T13:38:48;5.00;99.90
55091;DHT22;40985;53.180;5.800;2023-01-15T13:41:20;5.10;99.90
55091;DHT22;40985;53.180;5.800;2023-01-15T13:44:25;5.30;99.90
55091;DHT22;40985;53.180;5.800;2023-01-15T13:47:16;5.30;99.90
55091;DHT22;40985;53.180;5.800;2023-01-15T13:49:50;5.40;99.90
55091;DHT22;40985;53.180;5.800;2023-01-15T13:52:25;5.40;99.90
55091;DHT22;40985;53.180;5.800;2023-01-15T13:54:53;5.40;99.90
55091;DHT22;40985;53.180;5.800;2023-01-15T13:57:25;5.40;99.90
55091;DHT22;40985;53.180;5.800;2023-01-15T13:59:57;5.40;99.90
55091;DHT22;40985;53.180;5.800;2023-01-15T14:04:51;5.50;99.90
55091;DHT22;40985;53.180;5.800;2023-01-15T14:07:29;5.50;99.90
55091;DHT22;40985;53.180;5.800;2023-01-15T14:10:17;5.60;99.90
55091;DHT22;40985;53.180;5.800;2023-01-15T14:15:48;5.70;99.90
55091;DHT22;40985;53.180;5.800;2023-01-15T14:26:19;5.80;99.90
55091;DHT22;40985;53.180;5.800;2023-01-15T14:31:50;5.80;99.90
55091;DHT22;40985;53.180;5.800;2023-01-15T14:34:24;5.80;99.90
55091;DHT22;40985;53.180;5.800;2023-01-15T14:36:57;5.90;99.90
55091;DHT22;40985;53.180;5.800;2023-01-15T14:42:10;5.70;99.90
55091;DHT22;40985;53.180;5.800;2023-01-15T14:45:00;5.70;99.90
55091;DHT22;40985;53.180;5.800;2023-01-15T14:47:34;5.60;99.90
55091;DHT22;40985;53.180;5.800;2023-01-15T14:50:47;5.60;99.90
55091;DHT22;40985;53.180;5.800;2023-01-15T14:52:52;5.60;99.90
55091;DHT22;40985;53.180;5.800;2023-01-15T14:55:19;5.60;99.90
55091;DHT22;40985;53.180;5.800;2023-01-15T15:00:51;5.60;99.90
55091;DHT22;40985;53.180;5.800;2023-01-15T15:03:20;5.60;99.90
55091;DHT22;40985;53.180;5.800;2023-01-15T15:05:46;5.50;99.90
55091;DHT22;40985;53.180;5.800;2023-01-15T15:08:14;5.40;99.90
55091;DHT22;40985;53.180;5.800;2023-01-15T15:10:42;5.30;99.90
55091;DHT22;40985;53.180;5.800;2023-01-15T15:13:28;5.30;99.90
55091;DHT22;40985;53.180;5.800;2023-01-15T15:16:07;5.30;99.90
55091;DHT22;40985;53.180;5.800;2023-01-15T15:19:29;5.20;99.90
55091;DHT22;40985;53.180;5.800;2023-01-15T15:21:35;5.20;99.90
55091;DHT22;40985;53.180;5.800;2023-01-15T15:24:04;5.20;99.90
55091;DHT22;40985;53.180;5.800;2023-01-15T15:26:34;5.20;99.90
55091;DHT22;40985;53.180;5.800;2023-01-15T15:29:05;5.20;99.90
55091;DHT22;40985;53.180;5.800;2023-01-15T15:32:00;5.10;99.90
55091;DHT22;40985;53.180;5.800;2023-01-15T15:34:33;5.10;99.90
55091;DHT22;40985;53.180;5.800;2023-01-15T15:37:02;5.00;99.90
55091;DHT22;40985;53.180;5.800;2023-01-15T15:42:22;4.90;99.90
55091;DHT22;40985;53.180;5.800;2023-01-15T15:45:26;4.90;99.90
55091;DHT22;40985;53.180;5.800;2023-01-15T15:48:16;4.90;99.90
55091;DHT22;40985;53.180;5.800;2023-01-15T15:51:01;4.90;99.90
55091;DHT22;40985;53.180;5.800;2023-01-15T15:53:27;4.80;99.90
55091;DHT22;40985;53.180;5.800;2023-01-15T15:55:53;4.90;99.90
55091;DHT22;40985;53.180;5.800;2023-01-15T15:58:28;4.80;99.90
55091;DHT22;40985;53.180;5.800;2023-01-15T16:00:55;4.90;99.90
55091;DHT22;40985;53.180;5.800;2023-01-15T16:03:31;4.90;99.90
55091;DHT22;40985;53.180;5.800;2023-01-15T16:08:35;4.80;99.90
55091;DHT22;40985;53.180;5.800;2023-01-15T16:11:05;4.80;99.90
55091;DHT22;40985;53.180;5.800;2023-01-15T16:13:43;4.70;99.90
55091;DHT22;40985;53.180;5.800;2023-01-15T16:16:11;4.70;99.90
55091;DHT22;40985;53.180;5.800;2023-01-15T16:18:58;4.60;99.90
55091;DHT22;40985;53.180;5.800;2023-01-15T16:21:30;4.60;99.90
55091;DHT22;40985;53.180;5.800;2023-01-15T16:23:58;4.60;99.90
55091;DHT22;40985;53.180;5.800;2023-01-15T16:29:04;4.60;99.90
55091;DHT22;40985;53.180;5.800;2023-01-15T16:31:36;4.60;99.90
55091;DHT22;40985;53.180;5.800;2023-01-15T16:34:03;4.60;99.90
55091;DHT22;40985;53.180;5.800;2023-01-15T16:36:38;4.70;99.90
55091;DHT22;40985;53.180;5.800;2023-01-15T16:39:05;4.70;99.90
55091;DHT22;40985;53.180;5.800;2023-01-15T16:41:39;4.70;99.90
55091;DHT22;40985;53.180;5.800;2023-01-15T16:44:07;4.70;99.90
55091;DHT22;40985;53.180;5.800;2023-01-15T16:46:52;4.70;99.90
55091;DHT22;40985;53.180;5.800;2023-01-15T16:51:52;4.70;99.90
55091;DHT22;40985;53.180;5.800;2023-01-15T17:00:04;4.80;99.90
55091;DHT22;40985;53.180;5.800;2023-01-15T17:02:40;4.70;99.90
55091;DHT22;40985;53.180;5.800;2023-01-15T17:05:16;4.60;99.90
55091;DHT22;40985;53.180;5.800;2023-01-15T17:07:46;4.60;99.90
55091;DHT22;40985;53.180;5.800;2023-01-15T17:10:22;4.50;99.90
55091;DHT22;40985;53.180;5.800;2023-01-15T17:12:48;4.50;99.90
55091;DHT22;40985;53.180;5.800;2023-01-15T17:17:52;4.50;99.90
55091;DHT22;40985;53.180;5.800;2023-01-15T17:20:21;4.50;99.90
55091;DHT22;40985;53.180;5.800;2023-01-15T17:22:55;4.60;99.90
55091;DHT22;40985;53.180;5.800;2023-01-15T17:25:26;4.60;99.90
55091;DHT22;40985;53.180;5.800;2023-01-15T17:27:55;4.60;99.90
55091;DHT22;40985;53.180;5.800;2023-01-15T17:30:22;4.60;99.90
55091;DHT22;40985;53.180;5.800;2023-01-15T17:32:58;4.50;99.90
55091;DHT22;40985;53.180;5.800;2023-01-15T17:35:30;4.50;99.90
55091;DHT22;40985;53.180;5.800;2023-01-15T17:37:56;4.40;99.90
55091;DHT22;40985;53.180;5.800;2023-01-15T17:40:22;4.40;99.90
55091;DHT22;40985;53.180;5.800;2023-01-15T17:42:49;4.30;99.90
55091;DHT22;40985;53.180;5.800;2023-01-15T17:45:26;4.30;99.90
55091;DHT22;40985;53.180;5.800;2023-01-15T17:47:53;4.20;99.90
55091;DHT22;40985;53.180;5.800;2023-01-15T17:50:19;4.10;99.90
55091;DHT22;40985;53.180;5.800;2023-01-15T17:52:45;4.10;99.90
55091;DHT22;40985;53.180;5.800;2023-01-15T17:55:12;4.10;99.90
55091;DHT22;40985;53.180;5.800;2023-01-15T17:57:57;4.10;99.90
55091;DHT22;40985;53.180;5.800;2023-01-15T18:00:41;4.10;99.90
55091;DHT22;40985;53.180;5.800;2023-01-15T18:03:26;4.10;99.90
55091;DHT22;40985;53.180;5.800;2023-01-15T18:06:12;4.10;99.90
55091;DHT22;40985;53.180;5.800;2023-01-15T18:08:44;4.20;99.90
55091;DHT22;40985;53.180;5.800;2023-01-15T18:11:11;4.10;99.90
55091;DHT22;40985;53.180;5.800;2023-01-15T18:13:37;4.20;99.90
55091;DHT22;40985;53.180;5.800;2023-01-15T18:16:06;4.20;99.90
55091;DHT22;40985;53.180;5.800;2023-01-15T18:18:32;4.30;99.90
55091;DHT22;40985;53.180;5.800;2023-01-15T18:20:59;4.40;99.90
55091;DHT22;40985;53.180;5.800;2023-01-15T18:23:24;4.40;99.90
55091;DHT22;40985;53.180;5.800;2023-01-15T18:25:51;4.40;99.90